Pittsburgh, Pennsylvania
Current Conditions -  °F | °C
As of 5:37 AM on Thursday 27 Nov 2014 (Local Time) from KAGC Reporting Station
Haze Haze  
Wind Chill: -3°   Ceiling: 500
Heat Index:   Visibility: 2.5mi
Dew Point: -2°   Wind: 5mph
Humidity: 88%   Direction: 260°W
Pressure: 29.98"   Gusts: NA
Location:  40.44°N, 80°W
Report Text: KAGC 271037Z 26004KT 2 1/2SM BR BKN005 BKN013 OVC041 00/M02 A2998 RMK AO2 T00001017
Loading
Personal Weather Stations






























Interactive Weather Map New forecast layout! Learn more

10-Day Weather Forecast

Advertisements
Track Severe Weather on mobile